Rimini, Italy

03:06 PM CET am 20. Januar 2017 (GMT +0100)
Stazione meteo di Rimini | | Change Station

Höhe 0 ft 44.04 °N, 12.60 °E | Updated 1 second ago

Wolkig
Wolkig
40.9 °F
gefühlte 41 °F
N
0.0
Wind Wechselnd Wind aus West-Nordwest
Gusts 7.0 mph

Heute
Max. -- | schwach -- °F
--% Regenrisiko
Gestern
Max. -- | schwach -- °F
Precip. -- inch
Druck 30.48 inch
Sichtweite 6.2 Meilen
Wolken Teils Wolkig 4500 ft
Windchill 41 °F
Taupunkt 28 °F
Feuchtigkeit 60%
Regen 0.00 inch
Schneehöhe Nicht verfügbar..
7:37 AM 5:03 PM
Letztes Viertel, 44% visible
METAR LIPC 201355Z 31007KT 9999 SCT045 05/M01 Q1032
Druck 30.48 inch
Sichtweite 6.2 Meilen
Wolken Teils Wolkig 4500 ft
Windchill 41 °F
Taupunkt 28 °F
Feuchtigkeit 60%
Regen 0.00 inch
Schneehöhe Nicht verfügbar..
7:37 AM 5:03 PM
Letztes Viertel, 44% visible
METAR LIPC 201355Z 31007KT 9999 SCT045 05/M01 Q1032

Get Your Daily Forecast Email!

Thanks for signing up!

Be on the lookout for a verification email in your inbox.

You'll start receiving the daily forecast at 8 AM.

×

10-Day Weather Forecast

×

Almanac

Astronomie

Jan. 20, 2017 Aufgang Untergang
Genaue Zeit
Bürgerliche Dämmerung
Nautische Dämmerung
Astronomische Dämmerung
Mond
Länge des sichtbaren Lichts
Tageslänge
Tomorrow will be .
, % of the Moon is Illuminated

Heutige Rekorde

Country Highs Country Lows

Community

WunderPhotos

Upload Photos

1,962,540 Fotos hochgeladen!

WunderBlog® & News

Nearby

Luftqualität

  Luftqualität LQ Index Schadstoff
Not available.

Schneehöhe

Station Depth Höhe

Erdbebenaktivität

Stadt Distance Mag. Time & Date
Minimum magnitude displayed is 2.5.

küstennahe Wassertemperaturen

Ort Temperatur

Stations

Wetterstationen in der Umgebung

Stationsstandort Temp. Windchill Taupunkt Feuchtigkeit Wind Precip. Höhe Aktualisiert Art